Time;durP1;ratioP1;P1;durP2;ratioP2;P2;SDS_P1;SDS_P2;PMS_P1;PMS_P2;Temp;Humidity;BMP_temperature;BMP_pressure;BME280_temperature;BME280_humidity;BME280_pressure;Samples;Min_cycle;Max_cycle;Signal;HPM_P1;HPM_P2
2022/08/11 00:00:59;;;;;;;4.60;2.28;;;;;;;18.57;69.88;100369.94;4902497;29;20052;-66
2022/08/11 00:03:25;;;;;;;3.83;2.13;;;;;;;18.61;70.01;100376.88;4913810;29;20499;-66
2022/08/11 00:05:54;;;;;;;4.82;2.30;;;;;;;18.62;70.40;100379.47;4912442;29;20036;-66
2022/08/11 00:08:29;;;;;;;6.25;2.72;;;;;;;18.68;70.48;100372.88;4894574;29;20047;-66
2022/08/11 00:10:59;;;;;;;4.65;2.58;;;;;;;18.62;69.92;100373.22;4884099;29;20549;-66
2022/08/11 00:13:38;;;;;;;4.70;2.47;;;;;;;18.59;69.82;100394.97;4893971;29;20560;-66
2022/08/11 00:16:12;;;;;;;4.15;2.47;;;;;;;18.53;70.24;100384.56;4895378;29;20037;-66
2022/08/11 00:18:43;;;;;;;4.10;2.50;;;;;;;18.52;71.37;100388.22;4895801;29;20131;-66
2022/08/11 00:21:10;;;;;;;5.38;2.30;;;;;;;18.48;71.39;100387.53;4898980;29;20035;-65
2022/08/11 00:23:42;;;;;;;3.15;2.15;;;;;;;18.39;72.01;100382.66;4898642;29;20547;-66
2022/08/11 00:26:08;;;;;;;4.15;2.55;;;;;;;18.30;72.51;100383.19;4881943;29;20835;-65
2022/08/11 00:28:35;;;;;;;6.90;2.45;;;;;;;18.30;72.46;100378.66;4898854;29;20032;-66
2022/08/11 00:31:04;;;;;;;4.78;2.90;;;;;;;18.22;72.35;100386.31;4898707;29;20099;-66
2022/08/11 00:33:38;;;;;;;4.85;2.22;;;;;;;18.17;72.95;100383.00;4898484;29;20047;-66
2022/08/11 00:36:05;;;;;;;4.05;2.92;;;;;;;18.15;73.86;100384.91;4898739;29;20024;-65
2022/08/11 00:38:34;;;;;;;5.70;2.42;;;;;;;18.09;73.91;100379.91;4898284;29;20451;-66
2022/08/11 00:41:14;;;;;;;4.28;2.53;;;;;;;18.05;73.51;100388.25;4899045;29;20064;-66
2022/08/11 00:44:03;;;;;;;3.85;2.50;;;;;;;18.03;74.06;100388.34;4898289;29;20082;-65
2022/08/11 00:46:39;;;;;;;3.90;2.70;;;;;;;17.99;74.80;100389.44;4898426;29;20051;-66
2022/08/11 00:49:16;;;;;;;4.78;2.92;;;;;;;17.98;75.17;100387.72;4900805;29;20048;-66
2022/08/11 00:52:20;;;;;;;5.38;2.90;;;;;;;17.96;75.49;100392.31;4898426;29;20104;-66
2022/08/11 00:55:04;;;;;;;7.82;2.80;;;;;;;17.92;74.98;100396.13;4898076;29;20080;-66
2022/08/11 00:57:45;;;;;;;;;;;;;;;17.88;74.82;100397.28;4881599;29;20611;-66
2022/08/11 01:00:12;;;;;;;6.15;2.65;;;;;;;17.85;74.77;100392.06;4897990;29;19930;-66
2022/08/11 01:03:12;;;;;;;4.18;2.80;;;;;;;17.82;74.75;100394.94;4898381;29;20041;-66
2022/08/11 01:05:37;;;;;;;4.38;2.58;;;;;;;17.82;75.63;100397.63;4897789;29;20032;-66
2022/08/11 01:08:41;;;;;;;5.63;2.78;;;;;;;17.84;75.67;100395.69;4896849;29;20047;-65
2022/08/11 01:11:36;;;;;;;3.30;2.45;;;;;;;17.77;75.80;100382.69;4874956;29;20041;-65
2022/08/11 01:14:24;;;;;;;5.30;2.78;;;;;;;17.84;76.20;100387.63;4886821;29;20036;-66
2022/08/11 01:16:52;;;;;;;4.45;2.67;;;;;;;17.79;76.26;100387.00;4896815;29;20057;-66
2022/08/11 01:19:50;;;;;;;6.38;2.58;;;;;;;17.77;77.43;100394.31;4896997;29;20034;-66
2022/08/11 01:22:56;;;;;;;7.10;2.95;;;;;;;17.79;77.19;100389.69;4898081;29;20373;-66
2022/08/11 01:25:21;;;;;;;4.38;3.10;;;;;;;17.74;76.94;100394.47;4897685;29;20048;-63
2022/08/11 01:28:22;;;;;;;5.25;2.70;;;;;;;17.70;77.32;100387.53;4897622;29;20463;-64
2022/08/11 01:31:32;;;;;;;4.35;3.03;;;;;;;17.64;76.75;100387.03;4896885;29;20041;-63
2022/08/11 01:34:25;;;;;;;6.88;2.67;;;;;;;17.56;76.63;100382.03;4897657;29;20033;-63
2022/08/11 01:37:06;;;;;;;5.00;3.15;;;;;;;17.57;77.07;100380.22;4897340;29;20044;-64
2022/08/11 01:39:49;;;;;;;4.97;2.83;;;;;;;17.51;76.97;100381.44;4901371;29;20393;-63
2022/08/11 01:45:42;;;;;;;4.22;2.80;;;;;;;17.44;76.91;100385.41;4897644;29;20082;-60
2022/08/11 01:48:22;;;;;;;5.45;2.90;;;;;;;17.37;77.53;100389.38;4897215;29;20028;-61
2022/08/11 01:50:55;;;;;;;4.45;2.75;;;;;;;17.29;78.62;100385.34;4897123;29;20038;-63
2022/08/11 01:53:25;;;;;;;4.68;2.90;;;;;;;17.26;78.98;100381.00;4897246;29;20039;-63
2022/08/11 01:56:09;;;;;;;5.13;3.00;;;;;;;17.27;78.66;100380.06;4897286;29;20523;-63
2022/08/11 01:58:56;;;;;;;4.97;2.85;;;;;;;17.13;78.80;100362.94;4897232;29;20043;-63
2022/08/11 02:01:31;;;;;;;5.30;2.85;;;;;;;17.22;78.38;100381.25;4896922;29;20041;-63
2022/08/11 02:04:35;;;;;;;5.55;2.92;;;;;;;17.16;78.47;100385.16;4882636;29;20123;-63
2022/08/11 02:07:16;;;;;;;;;;;;;;;17.14;79.13;100392.41;4886551;29;20051;-63
2022/08/11 02:13:15;;;;;;;5.40;3.08;;;;;;;17.00;79.90;100381.53;4896440;29;20027;-64
2022/08/11 02:15:49;;;;;;;5.45;3.35;;;;;;;17.03;80.37;100384.06;4896689;29;20033;-64
2022/08/11 02:23:38;;;;;;;4.82;2.70;;;;;;;17.00;79.96;100389.59;4896519;29;20052;-64
2022/08/11 02:24:12;;;;;;;3.53;2.63;;;;;;;16.88;81.04;100379.50;4887649;29;20547;-64
2022/08/11 02:26:53;;;;;;;5.60;3.00;;;;;;;16.85;81.85;100383.19;4896798;29;20024;-64
2022/08/11 02:29:40;;;;;;;5.40;3.30;;;;;;;16.78;81.62;100373.75;4896780;29;20043;-64
2022/08/11 02:35:17;;;;;;;4.68;3.10;;;;;;;16.67;82.07;100367.19;4896831;29;20393;-64
2022/08/11 02:38:15;;;;;;;10.60;3.30;;;;;;;16.65;83.57;100364.59;4895809;29;20054;-64
2022/08/11 02:44:22;;;;;;;5.35;3.60;;;;;;;16.54;83.93;100379.50;4837554;29;20052;-64
2022/08/11 02:46:59;;;;;;;4.78;3.28;;;;;;;16.43;85.00;100365.72;4895400;29;20457;-64
2022/08/11 02:49:55;;;;;;;5.65;2.92;;;;;;;16.48;85.69;100371.75;4895614;29;20087;-64
2022/08/11 02:52:23;;;;;;;5.28;3.30;;;;;;;16.46;85.31;100376.31;4896065;29;20024;-64
2022/08/11 02:55:00;;;;;;;4.53;3.05;;;;;;;16.46;85.86;100381.69;4898319;29;20388;-64
2022/08/11 02:57:40;;;;;;;5.22;3.15;;;;;;;16.45;84.93;100379.94;4896154;29;20092;-64
2022/08/11 03:00:12;;;;;;;9.35;3.08;;;;;;;16.44;85.32;100378.19;4895679;29;20135;-64
2022/08/11 03:03:01;;;;;;;5.07;3.05;;;;;;;16.43;84.85;100379.13;4896182;29;20068;-64
2022/08/11 03:06:01;;;;;;;6.47;3.63;;;;;;;16.48;84.91;100382.50;4896102;29;20048;-64
2022/08/11 03:08:51;;;;;;;7.25;3.38;;;;;;;16.47;84.20;100384.31;4895797;29;20059;-64
2022/08/11 03:17:48;;;;;;;9.57;3.17;;;;;;;16.52;82.55;100397.50;4895196;29;20052;-64
2022/08/11 03:20:33;;;;;;;5.10;2.70;;;;;;;16.50;81.59;100394.03;4895444;29;20037;-64
2022/08/11 03:23:02;;;;;;;15.43;3.58;;;;;;;16.51;82.52;100385.00;4895773;29;20043;-64
2022/08/11 03:25:53;;;;;;;4.90;3.30;;;;;;;16.51;80.77;100393.94;4895703;29;20117;-63
2022/08/11 03:28:41;;;;;;;38.75;5.80;;;;;;;16.52;81.09;100389.44;4896084;29;20068;-64
2022/08/11 03:31:29;;;;;;;14.10;3.67;;;;;;;16.52;79.52;100401.03;4895089;29;20032;-64
2022/08/11 03:34:12;;;;;;;8.88;3.38;;;;;;;16.53;79.36;100404.59;4878953;29;20047;-64
2022/08/11 03:36:45;;;;;;;6.05;3.08;;;;;;;16.53;79.43;100399.22;4895829;29;20029;-64
2022/08/11 03:39:32;;;;;;;11.73;3.40;;;;;;;16.51;78.21;100403.81;4895889;29;20040;-63
2022/08/11 03:42:25;;;;;;;5.53;3.03;;;;;;;16.52;78.28;100402.88;4895807;29;20053;-64
2022/08/11 03:45:09;;;;;;;5.13;3.05;;;;;;;16.51;77.67;100401.13;4895879;29;20127;-63
2022/08/11 03:47:55;;;;;;;5.10;2.70;;;;;;;16.48;77.76;100396.78;4889538;29;20035;-64
2022/08/11 03:50:49;;;;;;;29.75;5.88;;;;;;;16.46;77.79;100408.53;4860583;29;20044;-64
2022/08/11 03:53:45;;;;;;;7.82;3.53;;;;;;;16.48;78.03;100409.34;4878734;29;20044;-64
2022/08/11 03:56:22;;;;;;;7.82;3.30;;;;;;;16.50;77.46;100404.78;4889364;29;20035;-64
2022/08/11 03:59:20;;;;;;;7.13;5.47;;;;;;;16.51;77.08;100406.50;4899210;29;20075;-64
2022/08/11 04:02:03;;;;;;;5.20;2.95;;;;;;;16.53;76.83;100393.88;4899435;29;20080;-64
2022/08/11 04:05:06;;;;;;;4.50;3.20;;;;;;;16.55;76.01;100402.72;4901938;29;20029;-64
2022/08/11 04:08:02;;;;;;;4.95;2.92;;;;;;;16.55;76.96;100397.34;4899002;29;20080;-64
2022/08/11 04:11:04;;;;;;;4.15;3.00;;;;;;;16.54;76.67;100395.63;4898920;29;20033;-64
2022/08/11 04:17:26;;;;;;;6.00;3.03;;;;;;;16.48;76.57;100398.59;4899217;29;20809;-64
2022/08/11 04:20:09;;;;;;;4.78;3.00;;;;;;;16.51;75.74;100407.38;4899019;29;20441;-64
2022/08/11 04:22:54;;;;;;;;;;;;;;;16.53;76.40;100399.22;4898969;29;20025;-64
2022/08/11 04:25:40;;;;;;;6.15;2.90;;;;;;;16.52;76.20;100398.34;4898280;29;20388;-64
2022/08/11 04:28:23;;;;;;;11.45;3.95;;;;;;;16.52;77.33;100400.19;4897931;29;20112;-64
2022/08/11 04:30:51;;;;;;;10.80;3.80;;;;;;;16.50;76.94;100402.09;4898138;29;20025;-64
2022/08/11 04:33:28;;;;;;;6.82;3.35;;;;;;;16.54;77.14;100398.31;4898097;29;20038;-64
2022/08/11 04:36:12;;;;;;;4.90;3.92;;;;;;;16.54;76.97;100395.63;4897863;29;20051;-64
2022/08/11 04:38:52;;;;;;;8.50;3.63;;;;;;;16.57;76.71;100406.22;4898550;29;20437;-64
2022/08/11 04:45:06;;;;;;;5.57;3.38;;;;;;;16.65;77.82;100404.88;4884163;29;20185;-64
2022/08/11 05:07:44;;;;;;;5.00;2.72;;;;;;;17.09;76.44;100406.13;4840009;29;20049;-64
2022/08/11 05:10:25;;;;;;;68.60;8.95;;;;;;;17.19;76.02;100419.03;4897953;29;20036;-64
2022/08/11 05:35:48;;;;;;;7.55;2.92;;;;;;;18.60;69.84;100413.72;4879303;29;20055;-64
2022/08/11 05:58:09;;;;;;;4.72;2.65;;;;;;;20.07;64.67;100419.78;4895895;29;20096;-64
2022/08/11 06:00:45;;;;;;;9.45;3.30;;;;;;;20.21;63.87;100411.69;4897118;29;20135;-64
2022/08/11 06:03:24;;;;;;;6.13;2.78;;;;;;;20.38;62.99;100419.53;4897548;29;20031;-64
2022/08/11 06:05:50;;;;;;;6.18;3.22;;;;;;;20.55;62.72;100419.28;4896827;29;20033;-64
2022/08/11 06:08:16;;;;;;;8.85;3.00;;;;;;;20.68;61.77;100409.38;4895626;29;20465;-64
2022/08/11 06:10:44;;;;;;;11.27;3.08;;;;;;;20.86;60.11;100410.81;4895781;29;20084;-64
2022/08/11 06:13:15;;;;;;;6.25;2.55;;;;;;;21.05;60.31;100410.47;4897158;29;20021;-64
2022/08/11 06:15:49;;;;;;;5.18;2.42;;;;;;;21.24;60.05;100419.03;4893396;29;20031;-64
2022/08/11 06:18:15;;;;;;;5.93;2.35;;;;;;;21.40;58.57;100410.72;4895510;29;20088;-64
2022/08/11 06:20:53;;;;;;;10.02;2.80;;;;;;;21.57;58.46;100415.78;4896584;29;20032;-64
2022/08/11 06:23:23;;;;;;;4.85;2.75;;;;;;;21.73;58.59;100416.44;4896685;29;20475;-64
2022/08/11 06:25:51;;;;;;;8.43;2.58;;;;;;;21.85;57.35;100410.13;4896982;29;20025;-64
2022/08/11 06:28:19;;;;;;;4.10;2.35;;;;;;;22.02;57.67;100415.19;4896731;29;20507;-64
2022/08/11 06:30:45;;;;;;;5.35;2.78;;;;;;;22.23;58.21;100407.31;4896559;29;20032;-64
2022/08/11 06:33:16;;;;;;;5.38;2.67;;;;;;;22.43;56.11;100410.28;4896391;29;20031;-64
2022/08/11 06:36:13;;;;;;;4.97;2.20;;;;;;;22.61;55.06;100414.38;4896466;29;20028;-64
2022/08/11 06:39:08;;;;;;;5.57;2.33;;;;;;;22.80;55.02;100414.69;4867004;29;20066;-65
2022/08/11 06:41:44;;;;;;;3.90;2.30;;;;;;;23.01;55.32;100407.63;4896298;29;20462;-64
2022/08/11 06:44:12;;;;;;;5.43;2.28;;;;;;;23.26;53.92;100410.16;4896375;29;20109;-64
2022/08/11 06:46:45;;;;;;;5.57;2.10;;;;;;;23.38;52.97;100403.78;4893346;29;20033;-64
2022/08/11 06:52:05;;;;;;;4.10;2.25;;;;;;;23.73;51.29;100410.97;4903070;29;20427;-64
2022/08/11 06:54:47;;;;;;;4.28;2.35;;;;;;;24.00;51.31;100414.22;4913502;29;20047;-64
2022/08/11 07:00:26;;;;;;;4.70;2.80;;;;;;;24.32;50.37;100418.72;4893410;29;20202;-64
2022/08/11 07:03:02;;;;;;;5.38;2.47;;;;;;;24.60;49.33;100414.56;4893735;29;20487;-64
2022/08/11 07:05:42;;;;;;;7.38;2.28;;;;;;;24.90;47.87;100414.72;4893731;29;20521;-64
2022/08/11 07:28:54;;;;;;;4.55;1.90;;;;;;;26.10;45.19;100405.00;4892994;29;20532;-64
2022/08/11 07:28:54;;;;;;;5.40;2.47;;;;;;;27.31;42.17;100411.78;4894773;29;21006;-65
2022/08/11 07:31:32;;;;;;;5.30;2.22;;;;;;;27.59;41.76;100410.00;4900662;29;20110;-65
2022/08/11 07:34:03;;;;;;;5.75;2.42;;;;;;;27.86;40.71;100415.50;4900554;29;20028;-64
2022/08/11 07:36:30;;;;;;;5.13;2.30;;;;;;;28.31;40.61;100411.88;4882509;29;20116;-64
2022/08/11 07:38:57;;;;;;;3.85;1.90;;;;;;;28.67;40.98;100410.06;4900207;29;20040;-64
2022/08/11 07:41:23;;;;;;;5.55;1.90;;;;;;;28.89;40.08;100414.22;4899861;29;20028;-65
2022/08/11 07:43:53;;;;;;;3.83;1.92;;;;;;;29.27;39.00;100406.56;4894345;29;20097;-65
2022/08/11 07:54:39;;;;;;;2.42;1.63;;;;;;;30.14;35.93;100401.78;4889362;29;20067;-65
2022/08/11 08:19:15;;;;;;;5.55;2.28;;;;;;;31.86;34.11;100390.69;4894941;29;20123;-64
2022/08/11 08:21:42;;;;;;;6.32;1.75;;;;;;;31.86;33.92;100388.75;4901926;29;20392;-64
2022/08/11 08:24:09;;;;;;;5.43;1.95;;;;;;;32.01;33.24;100389.75;4899172;29;20032;-64
2022/08/11 08:32:07;;;;;;;5.25;2.00;;;;;;;32.96;32.40;100389.44;4882535;29;20416;-65
2022/08/11 08:34:35;;;;;;;4.63;1.90;;;;;;;33.06;32.95;100392.81;4881735;29;20371;-65
2022/08/11 08:37:01;;;;;;;4.57;1.98;;;;;;;33.24;31.24;100392.47;4881951;29;20025;-65
2022/08/11 08:39:27;;;;;;;3.42;1.65;;;;;;;33.34;32.06;100393.91;4879406;29;20564;-65
2022/08/11 08:41:56;;;;;;;6.25;1.45;;;;;;;33.61;31.97;100386.97;4879133;29;20032;-65
2022/08/11 08:44:23;;;;;;;4.88;1.75;;;;;;;33.53;30.43;100383.44;4879430;29;20454;-65
2022/08/11 08:46:53;;;;;;;2.78;1.42;;;;;;;33.88;32.22;100386.34;4892252;29;20051;-65
2022/08/11 08:49:25;;;;;;;6.22;2.00;;;;;;;34.05;31.04;100389.78;4897709;29;20111;-65
2022/08/11 08:51:53;;;;;;;3.28;1.60;;;;;;;33.87;31.06;100381.00;4897649;29;20155;-66
2022/08/11 08:54:24;;;;;;;3.45;1.58;;;;;;;34.10;31.00;100370.75;4896991;29;20032;-66
2022/08/11 08:56:55;;;;;;;4.45;1.77;;;;;;;34.30;31.28;100377.38;4897610;29;20108;-66
2022/08/11 08:59:23;;;;;;;3.25;1.88;;;;;;;34.50;30.58;100381.25;4897206;29;20055;-66
2022/08/11 09:01:59;;;;;;;4.82;1.50;;;;;;;34.76;29.86;100378.81;4900520;29;20068;-67
2022/08/11 09:04:26;;;;;;;3.03;1.60;;;;;;;35.09;29.66;100373.66;4898399;29;20037;-67
2022/08/11 09:06:52;;;;;;;4.20;1.52;;;;;;;35.00;29.70;100375.69;4898428;29;20424;-67
2022/08/11 09:09:20;;;;;;;3.55;1.67;;;;;;;34.95;29.19;100377.31;4898260;29;20036;-67
2022/08/11 09:11:49;;;;;;;4.55;1.58;;;;;;;34.66;29.39;100369.13;4899225;29;20507;-69
2022/08/11 09:14:59;;;;;;;3.65;1.50;;;;;;;34.73;29.63;100373.66;4898327;29;20409;-69
2022/08/11 09:17:16;;;;;;;3.28;1.90;;;;;;;35.10;29.07;100370.69;4897260;29;20040;-69
2022/08/11 09:19:42;;;;;;;3.63;1.48;;;;;;;35.19;28.36;100363.94;4898353;29;20409;-68
2022/08/11 09:27:38;;;;;;;2.00;1.20;;;;;;;34.78;24.96;100349.03;4883959;29;20039;-68
2022/08/11 09:30:05;;;;;;;2.30;1.20;;;;;;;34.61;25.84;100358.66;4898126;29;20056;-68
2022/08/11 09:32:32;;;;;;;1.55;0.95;;;;;;;34.40;25.82;100353.94;4897803;29;20100;-67
2022/08/11 09:35:01;;;;;;;4.07;1.20;;;;;;;34.51;24.78;100349.81;4896960;29;20028;-67
2022/08/11 09:40:28;;;;;;;2.13;1.13;;;;;;;33.56;25.32;100366.53;4896932;29;20044;-67
2022/08/11 09:45:50;;;;;;;2.88;1.30;;;;;;;34.06;25.31;100350.94;4896997;29;20069;-67
2022/08/11 09:48:17;;;;;;;;;;;;;;;34.17;25.13;100352.31;4897639;29;20425;-67
2022/08/11 09:50:47;;;;;;;3.95;1.27;;;;;;;34.42;25.44;100338.03;4897170;29;19915;-67
2022/08/11 09:53:15;;;;;;;2.88;1.25;;;;;;;33.75;25.35;100349.38;4897715;29;20021;-68
2022/08/11 09:55:42;;;;;;;1.40;0.95;;;;;;;34.30;26.06;100335.94;4897491;29;20052;-68
2022/08/11 09:58:14;;;;;;;3.33;1.20;;;;;;;34.52;24.62;100332.19;4896383;29;20095;-68
2022/08/11 10:00:42;;;;;;;3.13;1.23;;;;;;;34.49;25.62;100343.63;4896576;29;20474;-68
2022/08/11 10:03:33;;;;;;;2.58;0.98;;;;;;;34.94;25.64;100348.84;4881321;29;20033;-68
2022/08/11 10:08:51;;;;;;;2.60;1.27;;;;;;;34.98;24.57;100333.53;4894739;29;20577;-69
2022/08/11 10:11:22;;;;;;;2.38;1.30;;;;;;;34.91;25.25;100337.31;4879501;29;20080;-68
2022/08/11 10:16:40;;;;;;;2.35;1.10;;;;;;;34.89;24.63;100337.47;4878026;29;20488;-68
2022/08/11 10:19:08;;;;;;;2.70;1.40;;;;;;;35.05;24.09;100340.00;4878160;29;20029;-68
2022/08/11 10:21:41;;;;;;;2.25;1.20;;;;;;;35.28;24.46;100340.63;4878412;29;20041;-67
2022/08/11 10:26:54;;;;;;;6.97;1.30;;;;;;;35.91;25.09;100324.91;4896404;29;20139;-68
2022/08/11 10:34:49;;;;;;;1.80;1.23;;;;;;;35.99;24.70;100308.09;4885792;29;20100;-68
2022/08/11 10:37:16;;;;;;;2.25;1.02;;;;;;;35.98;24.10;100318.34;4878141;29;20097;-69
2022/08/11 10:39:43;;;;;;;1.65;1.02;;;;;;;36.04;23.64;100324.97;4878115;29;20079;-69
2022/08/11 10:45:00;;;;;;;2.10;1.10;;;;;;;35.77;23.99;100313.72;4877831;29;20123;-69
2022/08/11 10:47:34;;;;;;;18.25;8.35;;;;;;;35.76;25.18;100309.25;4896282;29;20033;-69
2022/08/11 11:01:08;;;;;;;5.70;2.55;;;;;;;36.49;23.60;100308.53;4882646;29;20091;-69
2022/08/11 11:03:35;;;;;;;9.00;4.25;;;;;;;36.56;23.42;100300.22;4895569;29;20107;-69
2022/08/11 11:06:49;;;;;;;9.88;5.05;;;;;;;36.85;22.92;100302.66;4896045;29;20036;-68
2022/08/11 11:09:54;;;;;;;12.73;6.00;;;;;;;36.52;23.42;100285.09;4895977;29;20071;-69
2022/08/11 11:18:22;;;;;;;3.83;1.52;;;;;;;36.65;23.55;100296.19;4891580;29;20047;-68
2022/08/11 11:21:03;;;;;;;4.03;1.95;;;;;;;36.83;24.87;100293.69;4894893;29;20047;-68
2022/08/11 11:23:40;;;;;;;3.28;1.20;;;;;;;36.31;24.67;100288.00;4877079;29;20029;-68
2022/08/11 11:26:19;;;;;;;4.63;1.80;;;;;;;36.48;23.68;100281.88;4877165;29;20044;-68
2022/08/11 11:29:01;;;;;;;5.78;3.20;;;;;;;36.37;23.92;100265.00;4883809;29;20374;-68
2022/08/11 11:31:50;;;;;;;4.53;1.52;;;;;;;35.97;23.23;100275.06;4877381;29;20033;-68
2022/08/11 11:34:27;;;;;;;2.38;1.38;;;;;;;36.19;23.67;100273.03;4877505;29;20043;-67
2022/08/11 11:36:59;;;;;;;2.50;1.70;;;;;;;36.02;23.07;100277.22;4877163;29;20040;-68
2022/08/11 11:39:27;;;;;;;2.50;0.93;;;;;;;36.39;23.10;100271.22;4877453;29;20029;-68
2022/08/11 11:41:59;;;;;;;3.22;1.30;;;;;;;36.38;23.54;100277.78;4877273;29;20021;-67
2022/08/11 11:44:26;;;;;;;3.78;1.40;;;;;;;36.23;23.14;100279.88;4877602;29;20049;-67
2022/08/11 11:46:51;;;;;;;2.30;1.40;;;;;;;36.26;23.23;100268.38;4891115;29;20048;-67
2022/08/11 11:49:23;;;;;;;2.78;1.30;;;;;;;36.20;22.58;100274.72;4895827;29;20025;-67
2022/08/11 11:51:53;;;;;;;6.50;1.50;;;;;;;35.79;23.74;100278.38;4895821;29;20028;-68
2022/08/11 11:54:27;;;;;;;3.70;1.20;;;;;;;36.06;23.84;100264.69;4877696;29;20033;-67
2022/08/11 11:56:54;;;;;;;2.45;1.55;;;;;;;36.30;23.47;100258.56;4877199;29;20037;-67
2022/08/11 12:02:07;;;;;;;3.75;1.35;;;;;;;36.52;24.43;100246.28;4895726;29;20113;-67
2022/08/11 12:04:35;;;;;;;2.95;1.40;;;;;;;37.30;23.01;100246.31;4890691;29;20028;-67
2022/08/11 12:09:47;;;;;;;4.00;1.20;;;;;;;37.83;22.13;100247.03;4877338;29;20048;-67
2022/08/11 12:14:57;;;;;;;2.38;1.00;;;;;;;38.30;22.54;100237.44;4900581;29;20460;-67
2022/08/11 12:17:23;;;;;;;2.53;1.30;;;;;;;38.74;22.44;100240.13;4899293;29;20033;-67
2022/08/11 12:19:50;;;;;;;2.33;0.93;;;;;;;38.92;22.74;100238.28;4901521;29;20107;-67
2022/08/11 12:27:45;;;;;;;2.78;1.20;;;;;;;38.77;21.98;100234.13;4883989;29;20093;-67
2022/08/11 12:30:12;;;;;;;2.15;1.10;;;;;;;38.79;22.70;100220.84;4880361;29;20461;-67
2022/08/11 12:32:39;;;;;;;4.15;1.40;;;;;;;38.84;22.60;100218.22;4880125;29;20021;-68
2022/08/11 12:35:05;;;;;;;1.88;1.20;;;;;;;39.09;22.30;100227.44;4880330;29;20037;-67
2022/08/11 12:37:44;;;;;;;4.45;1.27;;;;;;;38.31;22.62;100211.31;4880215;29;20032;-67
2022/08/11 12:45:47;;;;;;;2.25;1.20;;;;;;;37.75;22.58;100206.50;4884024;29;20075;-67
2022/08/11 12:54:12;;;;;;;3.05;1.30;;;;;;;38.00;21.57;100193.53;4894395;29;20109;-68
2022/08/11 13:05:11;;;;;;;2.55;1.10;;;;;;;37.45;21.33;100188.63;4883285;29;20169;-67
2022/08/11 13:07:39;;;;;;;2.28;1.10;;;;;;;36.76;21.90;100181.88;4878429;29;20124;-67
2022/08/11 13:10:08;;;;;;;2.55;1.10;;;;;;;36.92;22.38;100187.84;4878834;29;20157;-66
2022/08/11 13:12:46;;;;;;;2.13;1.08;;;;;;;36.86;22.77;100182.31;4878745;29;20013;-66
2022/08/11 13:15:18;;;;;;;2.45;1.10;;;;;;;36.95;22.10;100181.03;4878684;29;20033;-66
2022/08/11 13:17:47;;;;;;;3.35;1.08;;;;;;;37.01;21.83;100174.63;4878664;29;20443;-66
2022/08/11 13:20:16;;;;;;;2.58;1.25;;;;;;;36.88;22.78;100171.88;4880180;29;20073;-67
2022/08/11 13:22:44;;;;;;;4.10;1.50;;;;;;;36.86;22.83;100174.00;4891156;29;20033;-66
2022/08/11 13:25:12;;;;;;;2.55;1.33;;;;;;;36.70;22.82;100171.66;4878557;29;20033;-66
2022/08/11 13:27:38;;;;;;;2.25;1.20;;;;;;;36.80;22.65;100172.09;4867506;29;20505;-66
2022/08/11 13:32:50;;;;;;;2.08;1.10;;;;;;;36.69;22.98;100154.13;4898145;29;20064;-66
2022/08/11 13:35:17;;;;;;;1.85;0.95;;;;;;;36.63;23.01;100154.16;4886106;29;20374;-66
2022/08/11 13:37:46;;;;;;;4.15;1.23;;;;;;;36.63;23.47;100143.06;4878563;29;20065;-66
2022/08/11 13:40:13;;;;;;;2.85;1.30;;;;;;;36.54;23.63;100152.69;4878821;29;20532;-67
2022/08/11 13:42:40;;;;;;;3.03;1.40;;;;;;;36.59;23.66;100136.25;4878747;29;20509;-67
2022/08/11 13:45:07;;;;;;;2.58;1.52;;;;;;;36.31;23.34;100138.34;4879197;29;20040;-67
2022/08/11 13:47:33;;;;;;;3.65;1.05;;;;;;;36.26;23.94;100138.97;4897419;29;20044;-67
2022/08/11 13:50:00;;;;;;;2.10;1.15;;;;;;;36.18;23.87;100143.88;4879987;29;20037;-67
2022/08/11 13:52:29;;;;;;;2.33;1.27;;;;;;;36.39;24.24;100140.94;4878666;29;20493;-67
2022/08/11 13:54:56;;;;;;;2.63;1.00;;;;;;;36.35;24.34;100134.09;4892166;29;20115;-67
2022/08/11 13:57:22;;;;;;;1.73;1.02;;;;;;;36.12;22.35;100128.09;4897442;29;20043;-67
2022/08/11 13:59:53;;;;;;;3.20;1.30;;;;;;;35.47;22.83;100123.22;4897139;29;20076;-66
2022/08/11 14:02:28;;;;;;;3.05;1.23;;;;;;;35.51;23.57;100122.59;4896367;29;20488;-66
2022/08/11 14:04:58;;;;;;;2.30;1.10;;;;;;;35.39;23.47;100127.00;4868402;29;20108;-66
2022/08/11 14:07:36;;;;;;;3.75;1.30;;;;;;;35.18;23.92;100117.94;4877816;29;20029;-67
2022/08/11 14:10:06;;;;;;;3.38;0.95;;;;;;;35.40;23.91;100125.09;4877883;29;20053;-66
2022/08/11 14:15:23;;;;;;;4.95;1.20;;;;;;;35.49;23.51;100113.63;4896476;29;20040;-66
2022/08/11 14:17:54;;;;;;;4.55;1.40;;;;;;;35.42;24.08;100104.44;4899695;29;20056;-66
2022/08/11 14:20:21;;;;;;;2.70;1.02;;;;;;;35.26;24.18;100104.78;4897615;29;20701;-66
2022/08/11 14:22:48;;;;;;;4.93;1.63;;;;;;;35.20;24.94;100111.16;4895150;29;20031;-67
2022/08/11 14:25:15;;;;;;;4.18;1.30;;;;;;;35.15;24.93;100113.69;4878468;29;20039;-68
2022/08/11 14:27:43;;;;;;;3.67;1.20;;;;;;;34.87;24.25;100100.94;4883273;29;20037;-67
2022/08/11 14:30:53;;;;;;;3.78;1.35;;;;;;;34.68;24.04;100094.22;4878228;29;20153;-67
2022/08/11 14:32:56;;;;;;;2.58;1.38;;;;;;;34.56;24.70;100091.16;4877908;29;20537;-67
2022/08/11 14:35:22;;;;;;;1.52;1.02;;;;;;;34.29;23.85;100093.88;4878180;29;20029;-67
2022/08/11 14:37:48;;;;;;;3.17;1.05;;;;;;;34.22;24.57;100090.22;4877184;29;20144;-65
2022/08/11 14:47:03;;;;;;;3.03;1.40;;;;;;;34.26;24.62;100089.63;4877873;29;20033;-65
2022/08/11 14:48:29;;;;;;;3.92;1.35;;;;;;;34.21;23.94;100085.75;4896490;29;20100;-65
2022/08/11 14:50:55;;;;;;;4.68;1.30;;;;;;;34.29;24.68;100077.31;4896506;29;20473;-64
2022/08/11 14:53:22;;;;;;;4.50;1.33;;;;;;;34.26;25.92;100072.19;4883253;29;20025;-64
2022/08/11 14:58:32;;;;;;;2.38;1.30;;;;;;;34.08;25.29;100072.69;4890143;29;20195;-65
2022/08/11 15:01:00;;;;;;;2.20;1.10;;;;;;;33.99;25.33;100064.72;4898112;29;20088;-65
2022/08/11 15:03:28;;;;;;;2.60;1.30;;;;;;;33.99;24.79;100068.34;4896205;29;20048;-65
2022/08/11 15:05:58;;;;;;;2.53;1.17;;;;;;;33.87;24.51;100060.78;4890361;29;20100;-66
2022/08/11 15:08:55;;;;;;;2.67;1.25;;;;;;;33.74;24.77;100067.00;4877639;29;20240;-65
2022/08/11 15:14:12;;;;;;;3.78;1.20;;;;;;;33.63;25.12;100047.34;4876962;29;20075;-65
2022/08/11 15:19:28;;;;;;;4.20;1.60;;;;;;;33.43;24.55;100046.31;4876746;29;20107;-66
2022/08/11 15:24:38;;;;;;;6.22;1.50;;;;;;;33.35;24.97;100045.34;4896316;29;20040;-66
2022/08/11 15:38:12;;;;;;;3.95;2.17;;;;;;;33.23;25.23;100035.84;4877268;29;20044;-65
2022/08/11 15:46:46;;;;;;;3.05;1.63;;;;;;;33.12;25.08;100032.75;4888695;29;20083;-65
2022/08/11 15:49:19;;;;;;;5.22;1.50;;;;;;;33.04;25.36;100033.72;4896074;29;20040;-66
2022/08/11 15:51:53;;;;;;;2.72;1.30;;;;;;;32.95;25.14;100032.13;4899144;29;20481;-65
2022/08/11 15:54:22;;;;;;;1.95;1.30;;;;;;;32.99;25.41;100030.69;4899313;29;20032;-65
2022/08/11 15:56:51;;;;;;;3.58;1.95;;;;;;;32.95;25.50;100034.03;4899630;29;20028;-65
2022/08/11 16:04:51;;;;;;;3.22;1.15;;;;;;;32.73;25.71;100023.94;4899722;29;20047;-66
2022/08/11 16:07:25;;;;;;;3.50;1.60;;;;;;;32.66;24.89;100029.38;4901509;29;20123;-66
2022/08/11 16:09:56;;;;;;;3.45;1.17;;;;;;;32.70;25.41;100027.91;4880690;29;20039;-66
2022/08/11 16:12:27;;;;;;;1.65;0.98;;;;;;;32.61;25.31;100028.22;4863842;29;20072;-65
2022/08/11 16:17:56;;;;;;;4.47;1.05;;;;;;;32.43;25.62;100034.13;4898408;29;20516;-65
2022/08/11 16:20:26;;;;;;;3.80;1.20;;;;;;;32.25;25.27;100022.56;4898932;29;20064;-65
2022/08/11 16:22:58;;;;;;;2.42;1.17;;;;;;;32.18;25.57;100021.59;4899159;29;20039;-65
2022/08/11 16:25:25;;;;;;;2.30;1.30;;;;;;;32.12;26.44;100019.63;4899255;29;20040;-65
2022/08/11 16:28:06;;;;;;;3.08;1.10;;;;;;;32.08;25.09;100021.88;4899141;29;20504;-66
2022/08/11 16:30:34;;;;;;;6.07;1.45;;;;;;;32.04;24.76;100022.44;4899136;29;20033;-66
2022/08/11 16:33:03;;;;;;;3.42;1.30;;;;;;;32.07;25.50;100016.56;4898897;29;20020;-66
2022/08/11 16:38:34;;;;;;;1.80;1.00;;;;;;;32.04;25.87;100014.19;4898932;29;20043;-65
2022/08/11 16:41:04;;;;;;;4.15;1.42;;;;;;;31.98;25.49;100006.66;4898567;29;20039;-65
2022/08/11 16:49:12;;;;;;;1.90;1.40;;;;;;;31.84;25.99;100001.97;4897913;29;20497;-65